createdAt,value
2022-10-11T00:00:19.210Z,98571.03
2022-10-11T00:02:51.892Z,98565.31
2022-10-11T00:05:22.026Z,98570.44
2022-10-11T00:07:52.157Z,98577.34
2022-10-11T00:10:23.660Z,98573.41
2022-10-11T00:12:54.871Z,98561.78
2022-10-11T00:15:25.465Z,98565.91
2022-10-11T00:18:02.140Z,98569.03
2022-10-11T00:20:34.695Z,98570.25
2022-10-11T00:23:04.733Z,98566.50
2022-10-11T00:25:34.771Z,98562.72
2022-10-11T00:28:04.781Z,98560.72
2022-10-11T00:30:35.437Z,98573.72
2022-10-11T00:33:08.195Z,98567.00
2022-10-11T00:35:38.279Z,98565.56
2022-10-11T00:38:08.228Z,98559.84
2022-10-11T00:40:38.372Z,98574.34
2022-10-11T00:43:17.401Z,98577.47
2022-10-11T00:46:05.526Z,98573.72
2022-10-11T00:48:45.045Z,98574.28
2022-10-11T00:51:23.468Z,98573.13
2022-10-11T00:53:56.085Z,98575.44
2022-10-11T00:56:33.366Z,98572.91
2022-10-11T00:59:08.611Z,98579.03
2022-10-11T01:01:39.005Z,98575.69
2022-10-11T01:04:11.871Z,98571.53
2022-10-11T01:06:44.029Z,98582.56
2022-10-11T01:09:16.345Z,98576.28
2022-10-11T01:11:47.197Z,98578.94
2022-10-11T01:14:59.010Z,98582.63
2022-10-11T01:17:47.761Z,98573.94
2022-10-11T01:20:39.989Z,98574.72
2022-10-11T01:24:04.696Z,98574.84
2022-10-11T01:27:33.365Z,98578.75
2022-10-11T01:30:20.662Z,98583.22
2022-10-11T01:33:02.506Z,98584.38
2022-10-11T01:35:43.597Z,98579.88
2022-10-11T01:38:24.613Z,98580.25
2022-10-11T01:41:01.078Z,98579.22
2022-10-11T01:43:33.092Z,98579.03
2022-10-11T01:46:08.635Z,98581.56
2022-10-11T01:48:51.158Z,98582.25
2022-10-11T01:51:26.246Z,98583.56
2022-10-11T01:54:16.365Z,98591.44
2022-10-11T01:57:17.137Z,98582.28
2022-10-11T02:00:01.737Z,98583.84
2022-10-11T02:03:04.922Z,98586.50
2022-10-11T02:05:49.174Z,98577.28
2022-10-11T02:08:28.341Z,98587.88
2022-10-11T02:11:10.223Z,98590.47
2022-10-11T02:13:48.989Z,98585.66
2022-10-11T02:16:28.641Z,98585.63
2022-10-11T02:19:06.313Z,98594.75
2022-10-11T02:21:41.713Z,98583.91
2022-10-11T02:24:19.332Z,98579.91
2022-10-11T02:26:55.471Z,98586.97
2022-10-11T02:29:30.400Z,98586.84
2022-10-11T02:32:03.717Z,98582.63
2022-10-11T02:34:42.274Z,98588.47
2022-10-11T02:37:24.348Z,98590.78
2022-10-11T02:40:01.080Z,98586.16
2022-10-11T02:42:39.870Z,98587.38
2022-10-11T02:45:20.112Z,98589.13
2022-10-11T02:47:51.217Z,98589.88
2022-10-11T02:50:26.145Z,98593.22
2022-10-11T02:52:56.183Z,98583.63
2022-10-11T02:55:26.246Z,98592.47
2022-10-11T02:57:56.601Z,98596.38
2022-10-11T03:00:26.902Z,98602.84
2022-10-11T03:02:57.209Z,98605.81
2022-10-11T03:05:29.842Z,98605.03
2022-10-11T03:07:59.864Z,98602.63
2022-10-11T03:10:29.919Z,98603.38
2022-10-11T03:12:59.917Z,98608.09
2022-10-11T03:15:30.051Z,98609.34
2022-10-11T03:18:00.138Z,98613.47
2022-10-11T03:20:32.730Z,98612.91
2022-10-11T03:23:02.733Z,98615.53
2022-10-11T03:25:32.783Z,98623.13
2022-10-11T03:28:02.812Z,98615.09
2022-10-11T03:30:32.801Z,98626.13
2022-10-11T03:33:02.876Z,98625.97
2022-10-11T03:35:35.652Z,98632.78
2022-10-11T03:38:06.003Z,98623.94
2022-10-11T03:40:36.871Z,98618.59
2022-10-11T03:43:06.889Z,98618.25
2022-10-11T03:45:37.209Z,98623.38
2022-10-11T03:48:08.498Z,98626.03
2022-10-11T03:50:41.890Z,98630.03
2022-10-11T03:53:12.323Z,98636.81
2022-10-11T03:55:43.775Z,98629.53
2022-10-11T03:58:13.915Z,98633.69
2022-10-11T04:00:43.856Z,98635.03
2022-10-11T04:03:13.911Z,98627.03
2022-10-11T04:05:46.497Z,98634.91
2022-10-11T04:08:16.607Z,98632.75
2022-10-11T04:10:46.771Z,98631.13
2022-10-11T04:13:16.757Z,98636.66
2022-10-11T04:15:46.827Z,98638.50
2022-10-11T04:18:16.911Z,98638.31
2022-10-11T04:20:49.534Z,98638.53
2022-10-11T04:23:19.543Z,98641.69
2022-10-11T04:25:49.571Z,98636.38
2022-10-11T04:28:19.875Z,98639.91
2022-10-11T04:30:50.001Z,98638.88
2022-10-11T04:33:20.376Z,98650.84
2022-10-11T04:35:57.178Z,98654.00
2022-10-11T04:38:27.155Z,98654.63
2022-10-11T04:40:57.166Z,98650.91
2022-10-11T04:43:27.207Z,98653.25
2022-10-11T04:45:57.180Z,98652.47
2022-10-11T04:48:27.339Z,98651.06
2022-10-11T04:51:00.167Z,98648.59
2022-10-11T04:53:30.207Z,98653.34
2022-10-11T04:56:02.680Z,98655.13
2022-10-11T04:58:34.939Z,98656.72
2022-10-11T05:01:04.935Z,98659.50
2022-10-11T05:03:34.976Z,98662.22
2022-10-11T05:06:09.072Z,98666.19
2022-10-11T05:08:39.663Z,98663.22
2022-10-11T05:11:15.818Z,98672.69
2022-10-11T05:13:47.929Z,98669.69
2022-10-11T05:16:19.593Z,98669.50
2022-10-11T05:18:49.587Z,98664.97
2022-10-11T05:21:25.293Z,98673.81
2022-10-11T05:23:57.900Z,98675.81
2022-10-11T05:26:30.154Z,98683.25
2022-10-11T05:29:00.283Z,98685.22
2022-10-11T05:31:30.495Z,98683.75
2022-10-11T05:34:00.493Z,98686.53
2022-10-11T05:36:33.114Z,98685.91
2022-10-11T05:39:03.141Z,98691.81
2022-10-11T05:41:33.306Z,98687.47
2022-10-11T05:44:03.354Z,98691.81
2022-10-11T05:46:33.373Z,98694.50
2022-10-11T05:49:03.372Z,98689.00
2022-10-11T05:51:35.996Z,98690.00
2022-10-11T05:54:06.055Z,98703.13
2022-10-11T05:56:36.067Z,98694.44
2022-10-11T05:59:07.740Z,98701.56
2022-10-11T06:01:37.800Z,98706.69
2022-10-11T06:04:08.513Z,98711.44
2022-10-11T06:06:41.115Z,98715.97
2022-10-11T06:09:12.229Z,98727.41
2022-10-11T06:11:42.890Z,98728.38
2022-10-11T06:14:13.369Z,98731.91
2022-10-11T06:16:43.606Z,98733.91
2022-10-11T06:19:13.650Z,98728.03
2022-10-11T06:21:46.776Z,98732.97
2022-10-11T06:24:16.881Z,98733.53
2022-10-11T06:26:46.865Z,98731.22
2022-10-11T06:29:16.872Z,98731.22
2022-10-11T06:31:47.114Z,98739.97
2022-10-11T06:34:18.030Z,98740.00
2022-10-11T06:36:50.555Z,98751.38
2022-10-11T06:39:20.663Z,98750.56
2022-10-11T06:41:50.823Z,98756.03
2022-10-11T06:44:21.445Z,98757.56
2022-10-11T06:46:51.494Z,98757.19
2022-10-11T06:49:23.475Z,98760.88
2022-10-11T06:51:56.315Z,98758.09
2022-10-11T06:54:26.558Z,98764.41
2022-10-11T06:56:56.625Z,98764.00
2022-10-11T06:59:26.686Z,98763.97
2022-10-11T07:01:56.640Z,98773.41
2022-10-11T07:04:26.754Z,98771.28
2022-10-11T07:06:59.371Z,98778.34
2022-10-11T07:09:30.828Z,98787.38
2022-10-11T07:12:00.906Z,98787.41
2022-10-11T07:14:31.191Z,98791.38
2022-10-11T07:17:01.246Z,98789.47
2022-10-11T07:19:31.555Z,98793.72
2022-10-11T07:22:04.600Z,98793.63
2022-10-11T07:24:34.730Z,98795.34
2022-10-11T07:27:04.748Z,98801.31
2022-10-11T07:29:34.793Z,98797.88
2022-10-11T07:32:04.802Z,98799.25
2022-10-11T07:34:34.845Z,98807.41
2022-10-11T07:37:07.422Z,98797.56
2022-10-11T07:39:37.908Z,98794.84
2022-10-11T07:42:09.899Z,98802.22
2022-10-11T07:44:39.917Z,98796.69
2022-10-11T07:47:11.390Z,98801.63
2022-10-11T07:49:41.591Z,98803.22
2022-10-11T07:52:14.199Z,98807.63
2022-10-11T07:54:44.300Z,98810.38
2022-10-11T07:57:15.103Z,98805.69
2022-10-11T07:59:49.999Z,98806.72
2022-10-11T08:02:20.346Z,98807.09
2022-10-11T08:04:50.449Z,98805.75
2022-10-11T08:07:23.110Z,98804.50
2022-10-11T08:09:53.188Z,98806.13
2022-10-11T08:12:23.175Z,98810.84
2022-10-11T08:14:53.213Z,98803.75
2022-10-11T08:17:23.318Z,98812.03
2022-10-11T08:19:53.532Z,98806.31
2022-10-11T08:22:26.150Z,98814.81
2022-10-11T08:24:56.149Z,98806.16
2022-10-11T08:27:26.434Z,98816.97
2022-10-11T08:29:56.437Z,98813.63
2022-10-11T08:32:26.474Z,98816.78
2022-10-11T08:34:56.890Z,98818.31
2022-10-11T08:37:29.659Z,98816.53
2022-10-11T08:39:59.645Z,98815.09
2022-10-11T08:42:41.196Z,98814.53
2022-10-11T08:45:25.421Z,98822.16
2022-10-11T08:48:09.847Z,98823.59
2022-10-11T08:50:42.105Z,98823.03
2022-10-11T08:53:26.707Z,98825.66
2022-10-11T08:55:58.295Z,98830.44
2022-10-11T08:58:42.685Z,98831.91
2022-10-11T09:01:22.004Z,98831.81
2022-10-11T09:03:53.587Z,98823.94
2022-10-11T09:06:39.562Z,98830.06
2022-10-11T09:09:31.730Z,98827.34
2022-10-11T09:12:20.601Z,98818.44
2022-10-11T09:15:18.348Z,98818.41
2022-10-11T09:18:22.294Z,98824.84
2022-10-11T09:21:11.811Z,98827.53
2022-10-11T09:24:07.479Z,98823.03
2022-10-11T09:26:54.162Z,98826.34
2022-10-11T09:29:50.271Z,98827.78
2022-10-11T09:32:23.820Z,98830.19
2022-10-11T09:35:04.228Z,98835.91
2022-10-11T09:37:45.099Z,98829.78
2022-10-11T09:40:36.628Z,98826.66
2022-10-11T09:43:11.145Z,98827.03
2022-10-11T09:45:49.304Z,98827.44
2022-10-11T09:48:25.614Z,98826.25
2022-10-11T09:51:01.166Z,98826.47
2022-10-11T09:53:58.496Z,98826.44
2022-10-11T09:56:31.720Z,98831.38
2022-10-11T09:59:29.479Z,98834.53
2022-10-11T10:02:25.009Z,98834.72
2022-10-11T10:05:04.295Z,98830.78
2022-10-11T10:07:37.874Z,98834.94
2022-10-11T10:10:34.045Z,98839.88
2022-10-11T10:13:07.348Z,98836.63
2022-10-11T10:15:47.809Z,98840.53
2022-10-11T10:18:26.998Z,98839.75
2022-10-11T10:21:00.230Z,98839.97
2022-10-11T10:23:33.375Z,98841.56
2022-10-11T10:26:17.249Z,98840.56
2022-10-11T10:29:18.642Z,98840.34
2022-10-11T10:32:14.994Z,98843.09
2022-10-11T10:35:03.092Z,98844.28
2022-10-11T10:37:41.607Z,98842.56
2022-10-11T10:40:18.786Z,98837.31
2022-10-11T10:42:48.947Z,98843.63
2022-10-11T10:45:22.101Z,98835.88
2022-10-11T10:48:17.709Z,98848.19
2022-10-11T10:50:58.647Z,98839.00
2022-10-11T10:53:37.023Z,98841.81
2022-10-11T10:56:15.099Z,98838.88
2022-10-11T10:59:14.307Z,98843.44
2022-10-11T11:02:06.715Z,98845.91
2022-10-11T11:05:01.144Z,98841.13
2022-10-11T11:07:39.595Z,98845.22
2022-10-11T11:10:18.230Z,98838.47
2022-10-11T11:12:58.237Z,98838.38
2022-10-11T11:15:38.557Z,98832.94
2022-10-11T11:18:29.959Z,98836.63
2022-10-11T11:21:29.459Z,98834.50
2022-10-11T11:24:15.828Z,98831.16
2022-10-11T11:26:55.267Z,98834.41
2022-10-11T11:29:45.971Z,98833.91
2022-10-11T11:32:32.667Z,98834.66
2022-10-11T11:35:06.887Z,98829.22
2022-10-11T11:37:44.141Z,98826.03
2022-10-11T11:40:21.316Z,98816.09
2022-10-11T11:42:56.680Z,98816.59
2022-10-11T11:45:33.812Z,98812.25
2022-10-11T11:48:09.383Z,98811.25
2022-10-11T11:50:45.115Z,98806.03
2022-10-11T11:53:27.459Z,98812.22
2022-10-11T11:56:05.808Z,98812.78
2022-10-11T11:58:48.007Z,98815.72
2022-10-11T12:01:33.419Z,98806.13
2022-10-11T12:04:10.054Z,98812.06
2022-10-11T12:07:04.095Z,98808.94
2022-10-11T12:09:37.216Z,98801.88
2022-10-11T12:12:10.148Z,98803.09
2022-10-11T12:14:43.347Z,98806.72
2022-10-11T12:17:24.453Z,98801.94
2022-10-11T12:20:19.116Z,98801.94
2022-10-11T12:23:00.946Z,98800.13
2022-10-11T12:25:42.850Z,98799.69
2022-10-11T12:29:05.344Z,98799.53
2022-10-11T12:31:42.409Z,98792.88
2022-10-11T12:34:38.107Z,98800.38
2022-10-11T12:37:53.992Z,98797.81
2022-10-11T12:40:45.983Z,98797.22
2022-10-11T12:43:39.023Z,98791.88
2022-10-11T12:46:42.944Z,98786.84
2022-10-11T12:49:38.936Z,98791.94
2022-10-11T12:52:31.930Z,98791.38
2022-10-11T12:55:38.141Z,98784.38
2022-10-11T12:58:38.267Z,98782.44
2022-10-11T13:01:37.657Z,98782.47
2022-10-11T13:04:12.791Z,98779.25
2022-10-11T13:06:53.528Z,98782.69
2022-10-11T13:09:33.817Z,98779.22
2022-10-11T13:12:10.232Z,98774.91
2022-10-11T13:14:49.526Z,98774.28
2022-10-11T13:17:24.054Z,98777.19
2022-10-11T13:20:04.100Z,98771.19
2022-10-11T13:22:40.983Z,98771.56
2022-10-11T13:25:17.898Z,98774.59
2022-10-11T13:27:48.676Z,98767.88
2022-10-11T13:30:27.720Z,98773.69
2022-10-11T13:32:58.214Z,98771.63
2022-10-11T13:35:36.418Z,98768.63
2022-10-11T13:38:11.085Z,98764.34
2022-10-11T13:40:41.645Z,98766.78
2022-10-11T13:43:11.989Z,98762.84
2022-10-11T13:45:45.135Z,98770.84
2022-10-11T13:48:19.091Z,98769.91
2022-10-11T13:51:08.174Z,98766.13
2022-10-11T13:53:38.590Z,98762.47
2022-10-11T13:56:12.558Z,98763.25
2022-10-11T13:58:50.559Z,98765.41
2022-10-11T14:01:27.982Z,98771.50
2022-10-11T14:04:03.547Z,98774.22
2022-10-11T14:06:49.686Z,98771.16
2022-10-11T14:09:25.876Z,98771.78
2022-10-11T14:11:56.771Z,98770.56
2022-10-11T14:14:46.213Z,98767.44
2022-10-11T14:17:22.720Z,98760.09
2022-10-11T14:20:17.334Z,98764.19
2022-10-11T14:22:47.516Z,98764.91
2022-10-11T14:25:17.747Z,98771.28
2022-10-11T14:27:47.972Z,98760.63
2022-10-11T14:30:25.715Z,98764.41
2022-10-11T14:33:03.440Z,98768.44
2022-10-11T14:35:37.458Z,98769.69
2022-10-11T14:38:07.404Z,98768.50
2022-10-11T14:40:37.548Z,98763.63
2022-10-11T14:43:08.015Z,98764.75
2022-10-11T14:45:38.131Z,98772.13
2022-10-11T14:48:10.864Z,98768.44
2022-10-11T14:50:48.437Z,98762.88
2022-10-11T14:53:18.717Z,98761.81
2022-10-11T14:55:49.082Z,98771.94
2022-10-11T14:58:20.981Z,98764.13
2022-10-11T15:00:51.019Z,98764.72
2022-10-11T15:03:23.620Z,98759.88
2022-10-11T15:05:53.711Z,98763.34
2022-10-11T15:08:23.713Z,98764.19
2022-10-11T15:10:53.963Z,98764.78
2022-10-11T15:13:27.764Z,98758.50
2022-10-11T15:15:57.835Z,98762.13
2022-10-11T15:18:30.472Z,98754.19
2022-10-11T15:21:00.661Z,98757.72
2022-10-11T15:23:30.778Z,98752.13
2022-10-11T15:26:00.886Z,98755.06
2022-10-11T15:28:34.184Z,98748.97
2022-10-11T15:31:04.287Z,98757.41
2022-10-11T15:33:36.892Z,98746.38
2022-10-11T15:36:08.727Z,98753.97
2022-10-11T15:38:39.342Z,98749.63
2022-10-11T15:41:09.938Z,98750.69
2022-10-11T15:43:39.875Z,98753.13
2022-10-11T15:46:10.065Z,98749.56
2022-10-11T15:48:42.763Z,98741.25
2022-10-11T15:51:13.090Z,98744.56
2022-10-11T15:53:43.278Z,98744.31
2022-10-11T15:56:19.456Z,98746.28
2022-10-11T15:58:49.585Z,98747.47
2022-10-11T16:01:22.716Z,98753.44
2022-10-11T16:03:55.490Z,98761.41
2022-10-11T16:06:26.273Z,98755.34
2022-10-11T16:08:56.293Z,98758.25
2022-10-11T16:11:26.247Z,98759.50
2022-10-11T16:13:56.194Z,98755.38
2022-10-11T16:16:26.438Z,98757.53
2022-10-11T16:18:59.004Z,98753.19
2022-10-11T16:21:29.161Z,98748.47
2022-10-11T16:23:59.132Z,98750.88
2022-10-11T16:26:29.138Z,98750.69
2022-10-11T16:28:59.255Z,98752.47
2022-10-11T16:31:29.343Z,98750.28
2022-10-11T16:34:02.018Z,98749.66
2022-10-11T16:36:36.603Z,98752.25
2022-10-11T16:39:11.731Z,98756.75
2022-10-11T16:41:42.145Z,98757.16
2022-10-11T16:44:16.392Z,98749.66
2022-10-11T16:46:48.512Z,98756.38
2022-10-11T16:49:24.599Z,98753.56
2022-10-11T16:51:59.056Z,98748.03
2022-10-11T16:54:30.356Z,98754.75
2022-10-11T16:57:01.124Z,98751.00
2022-10-11T16:59:31.192Z,98750.00
2022-10-11T17:02:01.313Z,98760.03
2022-10-11T17:04:34.074Z,98762.59
2022-10-11T17:07:04.433Z,98766.50
2022-10-11T17:09:34.428Z,98760.22
2022-10-11T17:12:04.468Z,98763.72
2022-10-11T17:14:34.473Z,98763.88
2022-10-11T17:17:05.159Z,98763.72
2022-10-11T17:19:42.601Z,98762.13
2022-10-11T17:22:16.613Z,98770.78
2022-10-11T17:24:47.528Z,98765.28
2022-10-11T17:27:17.729Z,98768.22
2022-10-11T17:29:47.729Z,98755.03
2022-10-11T17:32:17.743Z,98761.34
2022-10-11T17:34:50.329Z,98759.94
2022-10-11T17:37:20.830Z,98762.66
2022-10-11T17:39:51.267Z,98765.22
2022-10-11T17:42:21.433Z,98763.22
2022-10-11T17:44:51.776Z,98756.75
2022-10-11T17:47:21.812Z,98753.72
2022-10-11T17:49:54.415Z,98756.91
2022-10-11T17:52:24.505Z,98758.41
2022-10-11T17:54:54.520Z,98760.22
2022-10-11T17:57:24.662Z,98765.34
2022-10-11T17:59:54.687Z,98766.91
2022-10-11T18:02:24.675Z,98773.81
2022-10-11T18:04:57.299Z,98775.06
2022-10-11T18:07:27.371Z,98773.72
2022-10-11T18:09:57.389Z,98779.81
2022-10-11T18:12:28.511Z,98775.47
2022-10-11T18:14:58.584Z,98776.47
2022-10-11T18:17:28.775Z,98778.97
2022-10-11T18:20:01.476Z,98772.28
2022-10-11T18:22:31.585Z,98775.13
2022-10-11T18:25:01.606Z,98771.19
2022-10-11T18:27:31.955Z,98764.63
2022-10-11T18:30:01.966Z,98760.66
2022-10-11T18:32:32.011Z,98765.94
2022-10-11T18:35:04.630Z,98765.53
2022-10-11T18:37:34.657Z,98763.31
2022-10-11T18:40:04.668Z,98763.88
2022-10-11T18:42:34.673Z,98760.09
2022-10-11T18:45:04.700Z,98762.06
2022-10-11T18:47:34.839Z,98760.72
2022-10-11T18:50:09.564Z,98759.66
2022-10-11T18:52:43.776Z,98759.28
2022-10-11T18:55:14.580Z,98759.28
2022-10-11T18:57:45.029Z,98754.91
2022-10-11T19:00:39.526Z,98754.06
2022-10-11T19:03:07.458Z,98754.84
2022-10-11T19:05:41.709Z,98758.38
2022-10-11T19:08:11.753Z,98758.34
2022-10-11T19:10:41.805Z,98758.09
2022-10-11T19:13:11.799Z,98756.13
2022-10-11T19:15:41.790Z,98760.22
2022-10-11T19:18:13.470Z,98757.13
2022-10-11T19:20:47.618Z,98755.03
2022-10-11T19:23:17.595Z,98757.53
2022-10-11T19:25:47.587Z,98751.88
2022-10-11T19:28:18.339Z,98751.09
2022-10-11T19:30:48.424Z,98756.00
2022-10-11T19:33:18.432Z,98752.84
2022-10-11T19:35:59.982Z,98755.31
2022-10-11T19:38:29.997Z,98750.34
2022-10-11T19:41:00.091Z,98754.56
2022-10-11T19:43:30.586Z,98747.22
2022-10-11T19:46:03.618Z,98753.94
2022-10-11T19:48:34.370Z,98761.84
2022-10-11T19:51:10.331Z,98758.94
2022-10-11T19:53:40.546Z,98761.69
2022-10-11T19:56:14.546Z,98762.72
2022-10-11T19:58:45.730Z,98759.28
2022-10-11T20:01:18.893Z,98763.63
2022-10-11T20:03:52.726Z,98762.84
2022-10-11T20:06:27.866Z,98775.53
2022-10-11T20:09:23.875Z,98772.84
2022-10-11T20:11:49.142Z,98767.72
2022-10-11T20:14:19.165Z,98776.84
2022-10-11T20:16:51.960Z,98781.97
2022-10-11T20:19:27.701Z,98779.19
2022-10-11T20:22:02.896Z,98781.59
2022-10-11T20:24:34.462Z,98778.72
2022-10-11T20:27:09.752Z,98781.09
2022-10-11T20:29:39.717Z,98780.59
2022-10-11T20:32:09.763Z,98787.53
2022-10-11T20:34:39.920Z,98778.88
2022-10-11T20:37:12.755Z,98772.88
2022-10-11T20:39:42.777Z,98783.13
2022-10-11T20:42:13.032Z,98782.97
2022-10-11T20:44:43.745Z,98786.31
2022-10-11T20:47:13.802Z,98779.84
2022-10-11T20:49:43.839Z,98780.06
2022-10-11T20:52:16.848Z,98779.09
2022-10-11T20:54:46.861Z,98778.53
2022-10-11T20:57:16.892Z,98778.31
2022-10-11T20:59:47.346Z,98786.94
2022-10-11T21:02:19.133Z,98788.22
2022-10-11T21:04:49.274Z,98781.53
2022-10-11T21:07:22.091Z,98778.97
2022-10-11T21:09:52.148Z,98783.88
2022-10-11T21:12:22.177Z,98785.50
2022-10-11T21:14:52.186Z,98780.38
2022-10-11T21:17:22.322Z,98782.94
2022-10-11T21:19:52.336Z,98780.00
2022-10-11T21:22:24.932Z,98770.34
2022-10-11T21:24:55.046Z,98772.13
2022-10-11T21:27:25.098Z,98772.94
2022-10-11T21:29:55.281Z,98770.16
2022-10-11T21:32:25.465Z,98771.34
2022-10-11T21:34:55.504Z,98765.63
2022-10-11T21:37:28.090Z,98757.53
2022-10-11T21:39:58.094Z,98759.91
2022-10-11T21:42:29.644Z,98757.91
2022-10-11T21:44:59.809Z,98759.28
2022-10-11T21:47:31.416Z,98763.38
2022-10-11T21:50:01.558Z,98756.81
2022-10-11T21:52:34.425Z,98754.66
2022-10-11T21:55:04.657Z,98760.31
2022-10-11T21:57:34.659Z,98753.81
2022-10-11T22:00:04.770Z,98761.25
2022-10-11T22:02:43.365Z,98756.53
2022-10-11T22:05:13.593Z,98754.41
2022-10-11T22:07:46.218Z,98761.53
2022-10-11T22:10:16.278Z,98758.94
2022-10-11T22:12:47.214Z,98767.53
2022-10-11T22:15:17.397Z,98758.19
2022-10-11T22:17:47.399Z,98767.41
2022-10-11T22:20:17.538Z,98760.72
2022-10-11T22:22:50.106Z,98753.06
2022-10-11T22:25:20.217Z,98760.34
2022-10-11T22:27:50.326Z,98754.78
2022-10-11T22:30:20.458Z,98746.16
2022-10-11T22:32:50.520Z,98746.19
2022-10-11T22:35:20.622Z,98741.53
2022-10-11T22:37:53.335Z,98737.25
2022-10-11T22:40:23.833Z,98737.31
2022-10-11T22:42:53.831Z,98736.38
2022-10-11T22:45:23.815Z,98735.59
2022-10-11T22:47:53.804Z,98735.34
2022-10-11T22:50:23.819Z,98733.75
2022-10-11T22:52:56.419Z,98738.22
2022-10-11T22:55:26.586Z,98726.59
2022-10-11T22:57:57.223Z,98738.81
2022-10-11T23:00:27.190Z,98736.09
2022-10-11T23:02:57.262Z,98729.66
2022-10-11T23:05:27.574Z,98724.94
2022-10-11T23:08:00.179Z,98732.63
2022-10-11T23:10:31.099Z,98731.84
2022-10-11T23:13:01.082Z,98735.03
2022-10-11T23:15:31.098Z,98732.41
2022-10-11T23:18:01.113Z,98738.50
2022-10-11T23:20:31.094Z,98738.06
2022-10-11T23:23:03.695Z,98737.25
2022-10-11T23:25:33.710Z,98737.03
2022-10-11T23:28:04.083Z,98738.44
2022-10-11T23:30:34.174Z,98739.22
2022-10-11T23:33:04.222Z,98738.44
2022-10-11T23:35:34.229Z,98737.66
2022-10-11T23:38:06.826Z,98732.31
2022-10-11T23:40:36.847Z,98734.22
2022-10-11T23:43:06.829Z,98723.38
2022-10-11T23:45:36.894Z,98725.16
2022-10-11T23:48:07.583Z,98722.59
2022-10-11T23:50:37.572Z,98720.81
2022-10-11T23:53:10.272Z,98721.44
2022-10-11T23:55:41.005Z,98722.44
2022-10-11T23:58:11.915Z,98722.84
